Estrela do Sul, Brazil
Current Conditions -  °F | °C
As of 11:00 AM on Wednesday 26 Nov 2014 (Local Time) from SBUL Reporting Station
Broken Clouds Broken Clouds  
Wind Chill: 73°   Ceiling: 10000
Heat Index: 73°   Visibility: 6mi
Dew Point: 66°   Wind: 13mph
Humidity: 78%   Direction: 340°NNW
Pressure: 30"   Gusts: NA
Location:  18.75°S, 47.69°W
Report Text: SBUL 261300Z 34011KT 9999 SCT013 SCT030 BKN100 23/19 Q1016
Loading
Personal Weather Stations






























Interactive Weather Map New forecast layout! Learn more

10-Day Weather Forecast

Advertisements
Track Severe Weather on mobile